sensor_id;sensor_type;location;lat;lon;timestamp;temperature;humidity
29031;DHT22;16122;50.236;11.734;2024-01-30T00:01:41;16.40;61.70
29031;DHT22;16122;50.236;11.734;2024-01-30T00:04:06;16.30;61.50
29031;DHT22;16122;50.236;11.734;2024-01-30T00:06:32;16.30;61.30
29031;DHT22;16122;50.236;11.734;2024-01-30T00:08:58;16.30;61.40
29031;DHT22;16122;50.236;11.734;2024-01-30T00:11:24;16.30;61.30
29031;DHT22;16122;50.236;11.734;2024-01-30T00:13:54;16.30;61.20
29031;DHT22;16122;50.236;11.734;2024-01-30T00:16:25;16.30;61.00
29031;DHT22;16122;50.236;11.734;2024-01-30T00:18:51;16.30;61.00
29031;DHT22;16122;50.236;11.734;2024-01-30T00:21:18;16.30;60.70
29031;DHT22;16122;50.236;11.734;2024-01-30T00:23:44;16.30;60.60
29031;DHT22;16122;50.236;11.734;2024-01-30T00:26:10;16.30;60.50
29031;DHT22;16122;50.236;11.734;2024-01-30T00:28:40;16.30;60.30
29031;DHT22;16122;50.236;11.734;2024-01-30T00:31:06;16.30;60.30
29031;DHT22;16122;50.236;11.734;2024-01-30T00:33:32;16.30;60.10
29031;DHT22;16122;50.236;11.734;2024-01-30T00:35:58;16.30;60.10
29031;DHT22;16122;50.236;11.734;2024-01-30T00:38:24;16.30;60.10
29031;DHT22;16122;50.236;11.734;2024-01-30T00:40:50;16.30;60.00
29031;DHT22;16122;50.236;11.734;2024-01-30T00:43:16;16.30;60.00
29031;DHT22;16122;50.236;11.734;2024-01-30T00:45:43;16.30;59.90
29031;DHT22;16122;50.236;11.734;2024-01-30T00:48:10;16.30;59.80
29031;DHT22;16122;50.236;11.734;2024-01-30T00:50:35;16.30;59.70
29031;DHT22;16122;50.236;11.734;2024-01-30T00:53:01;16.30;59.70
29031;DHT22;16122;50.236;11.734;2024-01-30T00:55:27;16.30;59.70
29031;DHT22;16122;50.236;11.734;2024-01-30T00:57:53;16.30;59.60
29031;DHT22;16122;50.236;11.734;2024-01-30T01:00:18;16.30;59.60
29031;DHT22;16122;50.236;11.734;2024-01-30T01:02:46;16.30;59.50
29031;DHT22;16122;50.236;11.734;2024-01-30T01:05:12;16.30;59.50
29031;DHT22;16122;50.236;11.734;2024-01-30T01:07:38;16.30;59.40
29031;DHT22;16122;50.236;11.734;2024-01-30T01:10:06;16.30;59.30
29031;DHT22;16122;50.236;11.734;2024-01-30T01:12:32;16.30;59.20
29031;DHT22;16122;50.236;11.734;2024-01-30T01:14:57;16.30;59.20
29031;DHT22;16122;50.236;11.734;2024-01-30T01:17:23;16.30;59.10
29031;DHT22;16122;50.236;11.734;2024-01-30T01:19:49;16.30;59.00
29031;DHT22;16122;50.236;11.734;2024-01-30T01:22:16;16.30;59.00
29031;DHT22;16122;50.236;11.734;2024-01-30T01:24:42;16.30;58.90
29031;DHT22;16122;50.236;11.734;2024-01-30T01:27:08;16.30;58.90
29031;DHT22;16122;50.236;11.734;2024-01-30T01:29:34;16.30;58.70
29031;DHT22;16122;50.236;11.734;2024-01-30T01:32:00;16.30;58.80
29031;DHT22;16122;50.236;11.734;2024-01-30T01:34:25;16.30;58.70
29031;DHT22;16122;50.236;11.734;2024-01-30T01:36:52;16.20;58.60
29031;DHT22;16122;50.236;11.734;2024-01-30T01:39:21;16.30;58.40
29031;DHT22;16122;50.236;11.734;2024-01-30T01:41:50;16.30;58.40
29031;DHT22;16122;50.236;11.734;2024-01-30T01:44:16;16.30;58.40
29031;DHT22;16122;50.236;11.734;2024-01-30T01:46:42;16.30;58.40
29031;DHT22;16122;50.236;11.734;2024-01-30T01:49:08;16.30;58.30
29031;DHT22;16122;50.236;11.734;2024-01-30T01:51:36;16.30;58.10
29031;DHT22;16122;50.236;11.734;2024-01-30T01:54:03;16.30;58.10
29031;DHT22;16122;50.236;11.734;2024-01-30T01:56:30;16.30;58.00
29031;DHT22;16122;50.236;11.734;2024-01-30T01:59:00;16.30;58.20
29031;DHT22;16122;50.236;11.734;2024-01-30T02:01:29;16.30;58.20
29031;DHT22;16122;50.236;11.734;2024-01-30T02:03:55;16.30;58.20
29031;DHT22;16122;50.236;11.734;2024-01-30T02:06:21;16.30;58.10
29031;DHT22;16122;50.236;11.734;2024-01-30T02:08:48;16.30;58.00
29031;DHT22;16122;50.236;11.734;2024-01-30T02:11:14;16.30;58.10
29031;DHT22;16122;50.236;11.734;2024-01-30T02:13:42;16.30;58.10
29031;DHT22;16122;50.236;11.734;2024-01-30T02:16:08;16.30;58.10
29031;DHT22;16122;50.236;11.734;2024-01-30T02:18:33;16.30;58.20
29031;DHT22;16122;50.236;11.734;2024-01-30T02:21:04;16.30;58.10
29031;DHT22;16122;50.236;11.734;2024-01-30T02:23:30;16.30;58.20
29031;DHT22;16122;50.236;11.734;2024-01-30T02:25:56;16.30;58.10
29031;DHT22;16122;50.236;11.734;2024-01-30T02:28:22;16.30;58.10
29031;DHT22;16122;50.236;11.734;2024-01-30T02:30:48;16.30;58.10
29031;DHT22;16122;50.236;11.734;2024-01-30T02:33:13;16.30;58.10
29031;DHT22;16122;50.236;11.734;2024-01-30T02:35:39;16.30;58.10
29031;DHT22;16122;50.236;11.734;2024-01-30T02:38:05;16.30;58.00
29031;DHT22;16122;50.236;11.734;2024-01-30T02:40:31;16.30;58.00
29031;DHT22;16122;50.236;11.734;2024-01-30T02:43:02;16.30;58.00
29031;DHT22;16122;50.236;11.734;2024-01-30T02:45:28;16.30;58.00
29031;DHT22;16122;50.236;11.734;2024-01-30T02:47:54;16.30;57.90
29031;DHT22;16122;50.236;11.734;2024-01-30T02:50:20;16.30;57.80
29031;DHT22;16122;50.236;11.734;2024-01-30T02:52:46;16.40;57.90
29031;DHT22;16122;50.236;11.734;2024-01-30T02:55:12;16.30;57.80
29031;DHT22;16122;50.236;11.734;2024-01-30T02:57:38;16.30;57.80
29031;DHT22;16122;50.236;11.734;2024-01-30T03:00:05;16.40;57.80
29031;DHT22;16122;50.236;11.734;2024-01-30T03:02:32;16.40;57.90
29031;DHT22;16122;50.236;11.734;2024-01-30T03:04:59;16.30;57.70
29031;DHT22;16122;50.236;11.734;2024-01-30T03:07:25;16.30;57.70
29031;DHT22;16122;50.236;11.734;2024-01-30T03:09:51;16.40;57.70
29031;DHT22;16122;50.236;11.734;2024-01-30T03:12:17;16.40;57.80
29031;DHT22;16122;50.236;11.734;2024-01-30T03:14:43;16.30;57.60
29031;DHT22;16122;50.236;11.734;2024-01-30T03:17:09;16.40;57.70
29031;DHT22;16122;50.236;11.734;2024-01-30T03:19:34;16.40;57.60
29031;DHT22;16122;50.236;11.734;2024-01-30T03:22:00;16.40;57.70
29031;DHT22;16122;50.236;11.734;2024-01-30T03:24:26;16.40;57.60
29031;DHT22;16122;50.236;11.734;2024-01-30T03:26:53;16.40;57.50
29031;DHT22;16122;50.236;11.734;2024-01-30T03:29:19;16.40;57.60
29031;DHT22;16122;50.236;11.734;2024-01-30T03:31:45;16.40;57.50
29031;DHT22;16122;50.236;11.734;2024-01-30T03:34:12;16.40;57.50
29031;DHT22;16122;50.236;11.734;2024-01-30T03:36:38;16.40;57.50
29031;DHT22;16122;50.236;11.734;2024-01-30T03:39:03;16.40;57.50
29031;DHT22;16122;50.236;11.734;2024-01-30T03:41:30;16.40;57.50
29031;DHT22;16122;50.236;11.734;2024-01-30T03:43:56;16.40;57.50
29031;DHT22;16122;50.236;11.734;2024-01-30T03:46:21;16.40;57.50
29031;DHT22;16122;50.236;11.734;2024-01-30T03:48:47;16.40;57.50
29031;DHT22;16122;50.236;11.734;2024-01-30T03:51:13;16.40;57.40
29031;DHT22;16122;50.236;11.734;2024-01-30T03:53:43;16.40;57.40
29031;DHT22;16122;50.236;11.734;2024-01-30T03:56:09;16.40;57.30
29031;DHT22;16122;50.236;11.734;2024-01-30T03:58:35;16.40;57.30
29031;DHT22;16122;50.236;11.734;2024-01-30T04:01:01;16.40;57.30
29031;DHT22;16122;50.236;11.734;2024-01-30T04:03:27;16.40;57.30
29031;DHT22;16122;50.236;11.734;2024-01-30T04:05:53;16.40;57.20
29031;DHT22;16122;50.236;11.734;2024-01-30T04:08:19;16.40;57.20
29031;DHT22;16122;50.236;11.734;2024-01-30T04:10:45;16.40;57.20
29031;DHT22;16122;50.236;11.734;2024-01-30T04:13:11;16.40;57.10
29031;DHT22;16122;50.236;11.734;2024-01-30T04:15:37;16.40;57.00
29031;DHT22;16122;50.236;11.734;2024-01-30T04:18:03;16.40;57.00
29031;DHT22;16122;50.236;11.734;2024-01-30T04:20:29;16.40;57.00
29031;DHT22;16122;50.236;11.734;2024-01-30T04:22:55;16.40;56.90
29031;DHT22;16122;50.236;11.734;2024-01-30T04:25:21;16.30;56.90
29031;DHT22;16122;50.236;11.734;2024-01-30T04:27:48;16.40;56.90
29031;DHT22;16122;50.236;11.734;2024-01-30T04:30:14;16.40;56.70
29031;DHT22;16122;50.236;11.734;2024-01-30T04:32:40;16.30;56.70
29031;DHT22;16122;50.236;11.734;2024-01-30T04:35:06;16.30;56.70
29031;DHT22;16122;50.236;11.734;2024-01-30T04:37:32;16.30;56.60
29031;DHT22;16122;50.236;11.734;2024-01-30T04:39:57;16.30;56.70
29031;DHT22;16122;50.236;11.734;2024-01-30T04:42:23;16.30;56.60
29031;DHT22;16122;50.236;11.734;2024-01-30T04:44:49;16.30;56.60
29031;DHT22;16122;50.236;11.734;2024-01-30T04:47:15;16.30;56.60
29031;DHT22;16122;50.236;11.734;2024-01-30T04:49:41;16.30;56.60
29031;DHT22;16122;50.236;11.734;2024-01-30T04:52:08;16.30;56.50
29031;DHT22;16122;50.236;11.734;2024-01-30T04:54:37;16.30;56.50
29031;DHT22;16122;50.236;11.734;2024-01-30T04:57:03;16.30;56.50
29031;DHT22;16122;50.236;11.734;2024-01-30T04:59:29;16.30;56.70
29031;DHT22;16122;50.236;11.734;2024-01-30T05:01:54;16.40;56.80
29031;DHT22;16122;50.236;11.734;2024-01-30T05:04:20;16.30;56.70
29031;DHT22;16122;50.236;11.734;2024-01-30T05:06:47;16.40;56.90
29031;DHT22;16122;50.236;11.734;2024-01-30T05:09:13;16.30;56.80
29031;DHT22;16122;50.236;11.734;2024-01-30T05:11:41;16.40;56.90
29031;DHT22;16122;50.236;11.734;2024-01-30T05:14:07;16.40;56.70
29031;DHT22;16122;50.236;11.734;2024-01-30T05:16:37;16.40;56.70
29031;DHT22;16122;50.236;11.734;2024-01-30T05:19:03;16.40;56.60
29031;DHT22;16122;50.236;11.734;2024-01-30T05:21:29;16.40;56.60
29031;DHT22;16122;50.236;11.734;2024-01-30T05:23:54;16.40;56.70
29031;DHT22;16122;50.236;11.734;2024-01-30T05:26:20;16.30;56.60
29031;DHT22;16122;50.236;11.734;2024-01-30T05:28:48;16.40;56.70
29031;DHT22;16122;50.236;11.734;2024-01-30T05:31:14;16.30;56.50
29031;DHT22;16122;50.236;11.734;2024-01-30T05:33:40;16.40;56.50
29031;DHT22;16122;50.236;11.734;2024-01-30T05:36:06;16.40;56.40
29031;DHT22;16122;50.236;11.734;2024-01-30T05:38:32;16.30;56.40
29031;DHT22;16122;50.236;11.734;2024-01-30T05:40:58;16.30;56.30
29031;DHT22;16122;50.236;11.734;2024-01-30T05:43:24;16.40;56.40
29031;DHT22;16122;50.236;11.734;2024-01-30T05:45:51;16.30;56.30
29031;DHT22;16122;50.236;11.734;2024-01-30T05:48:17;16.30;56.30
29031;DHT22;16122;50.236;11.734;2024-01-30T05:50:43;16.30;56.30
29031;DHT22;16122;50.236;11.734;2024-01-30T05:53:09;16.30;56.20
29031;DHT22;16122;50.236;11.734;2024-01-30T05:55:34;16.30;56.30
29031;DHT22;16122;50.236;11.734;2024-01-30T05:58:00;16.30;56.40
29031;DHT22;16122;50.236;11.734;2024-01-30T06:00:26;16.30;56.40
29031;DHT22;16122;50.236;11.734;2024-01-30T06:02:52;16.30;56.30
29031;DHT22;16122;50.236;11.734;2024-01-30T06:05:18;16.30;56.40
29031;DHT22;16122;50.236;11.734;2024-01-30T06:07:43;16.30;56.30
29031;DHT22;16122;50.236;11.734;2024-01-30T06:10:09;16.30;56.20
29031;DHT22;16122;50.236;11.734;2024-01-30T06:12:35;16.30;56.40
29031;DHT22;16122;50.236;11.734;2024-01-30T06:15:02;16.30;56.20
29031;DHT22;16122;50.236;11.734;2024-01-30T06:17:28;16.30;56.50
29031;DHT22;16122;50.236;11.734;2024-01-30T06:19:54;16.30;56.70
29031;DHT22;16122;50.236;11.734;2024-01-30T06:22:20;16.30;56.90
29031;DHT22;16122;50.236;11.734;2024-01-30T06:24:46;16.30;57.10
29031;DHT22;16122;50.236;11.734;2024-01-30T06:27:14;16.30;57.10
29031;DHT22;16122;50.236;11.734;2024-01-30T06:29:42;16.30;57.30
29031;DHT22;16122;50.236;11.734;2024-01-30T06:32:08;16.30;57.50
29031;DHT22;16122;50.236;11.734;2024-01-30T06:34:34;16.30;57.60
29031;DHT22;16122;50.236;11.734;2024-01-30T06:37:00;16.30;57.70
29031;DHT22;16122;50.236;11.734;2024-01-30T06:39:26;16.30;57.80
29031;DHT22;16122;50.236;11.734;2024-01-30T06:41:52;16.30;57.80
29031;DHT22;16122;50.236;11.734;2024-01-30T06:44:18;16.30;58.00
29031;DHT22;16122;50.236;11.734;2024-01-30T06:46:44;16.30;58.00
29031;DHT22;16122;50.236;11.734;2024-01-30T06:49:10;16.30;58.00
29031;DHT22;16122;50.236;11.734;2024-01-30T06:51:36;16.30;58.00
29031;DHT22;16122;50.236;11.734;2024-01-30T06:54:03;16.30;58.00
29031;DHT22;16122;50.236;11.734;2024-01-30T06:56:29;16.30;58.00
29031;DHT22;16122;50.236;11.734;2024-01-30T06:58:56;16.40;58.00
29031;DHT22;16122;50.236;11.734;2024-01-30T07:01:30;16.30;58.00
29031;DHT22;16122;50.236;11.734;2024-01-30T07:03:57;16.30;58.00
29031;DHT22;16122;50.236;11.734;2024-01-30T07:06:23;16.30;58.10
29031;DHT22;16122;50.236;11.734;2024-01-30T07:08:49;16.40;58.10
29031;DHT22;16122;50.236;11.734;2024-01-30T07:11:22;16.40;58.10
29031;DHT22;16122;50.236;11.734;2024-01-30T07:13:52;16.40;58.20
29031;DHT22;16122;50.236;11.734;2024-01-30T07:16:18;16.40;58.20
29031;DHT22;16122;50.236;11.734;2024-01-30T07:18:44;16.40;58.30
29031;DHT22;16122;50.236;11.734;2024-01-30T07:21:11;16.40;58.30
29031;DHT22;16122;50.236;11.734;2024-01-30T07:23:37;16.40;58.30
29031;DHT22;16122;50.236;11.734;2024-01-30T07:26:07;16.40;58.30
29031;DHT22;16122;50.236;11.734;2024-01-30T07:28:34;16.40;58.30
29031;DHT22;16122;50.236;11.734;2024-01-30T07:31:01;16.40;58.30
29031;DHT22;16122;50.236;11.734;2024-01-30T07:33:27;16.40;58.30
29031;DHT22;16122;50.236;11.734;2024-01-30T07:35:53;16.40;58.30
29031;DHT22;16122;50.236;11.734;2024-01-30T07:38:19;16.40;58.30
29031;DHT22;16122;50.236;11.734;2024-01-30T07:40:45;16.40;58.20
29031;DHT22;16122;50.236;11.734;2024-01-30T07:43:11;16.40;58.30
29031;DHT22;16122;50.236;11.734;2024-01-30T07:45:37;16.40;58.30
29031;DHT22;16122;50.236;11.734;2024-01-30T07:48:05;16.40;58.90
29031;DHT22;16122;50.236;11.734;2024-01-30T07:50:31;16.40;58.30
29031;DHT22;16122;50.236;11.734;2024-01-30T07:52:58;16.40;58.30
29031;DHT22;16122;50.236;11.734;2024-01-30T07:55:24;16.40;58.30
29031;DHT22;16122;50.236;11.734;2024-01-30T07:58:18;16.40;58.40
29031;DHT22;16122;50.236;11.734;2024-01-30T08:00:46;16.40;58.10
29031;DHT22;16122;50.236;11.734;2024-01-30T08:03:12;16.50;58.20
29031;DHT22;16122;50.236;11.734;2024-01-30T08:05:39;16.40;58.00
29031;DHT22;16122;50.236;11.734;2024-01-30T08:08:05;16.50;57.90
29031;DHT22;16122;50.236;11.734;2024-01-30T08:10:31;16.40;58.30
29031;DHT22;16122;50.236;11.734;2024-01-30T08:12:56;16.40;57.60
29031;DHT22;16122;50.236;11.734;2024-01-30T08:15:22;16.40;57.50
29031;DHT22;16122;50.236;11.734;2024-01-30T08:17:48;16.40;57.40
29031;DHT22;16122;50.236;11.734;2024-01-30T08:20:14;16.50;57.40
29031;DHT22;16122;50.236;11.734;2024-01-30T08:22:40;16.40;57.20
29031;DHT22;16122;50.236;11.734;2024-01-30T08:25:06;16.40;57.10
29031;DHT22;16122;50.236;11.734;2024-01-30T08:27:33;16.40;57.00
29031;DHT22;16122;50.236;11.734;2024-01-30T08:30:01;16.40;57.00
29031;DHT22;16122;50.236;11.734;2024-01-30T08:32:27;16.40;57.10
29031;DHT22;16122;50.236;11.734;2024-01-30T08:34:53;16.40;56.80
29031;DHT22;16122;50.236;11.734;2024-01-30T08:37:19;16.40;56.90
29031;DHT22;16122;50.236;11.734;2024-01-30T08:39:44;16.40;56.90
29031;DHT22;16122;50.236;11.734;2024-01-30T08:42:10;16.40;56.80
29031;DHT22;16122;50.236;11.734;2024-01-30T08:44:37;16.40;56.80
29031;DHT22;16122;50.236;11.734;2024-01-30T08:47:04;16.40;56.80
29031;DHT22;16122;50.236;11.734;2024-01-30T08:49:30;16.40;56.70
29031;DHT22;16122;50.236;11.734;2024-01-30T08:51:56;16.40;56.60
29031;DHT22;16122;50.236;11.734;2024-01-30T08:54:23;16.40;56.60
29031;DHT22;16122;50.236;11.734;2024-01-30T08:56:49;16.40;56.30
29031;DHT22;16122;50.236;11.734;2024-01-30T08:59:15;16.40;56.40
29031;DHT22;16122;50.236;11.734;2024-01-30T09:01:41;16.40;56.50
29031;DHT22;16122;50.236;11.734;2024-01-30T09:04:06;16.40;56.30
29031;DHT22;16122;50.236;11.734;2024-01-30T09:06:32;16.40;56.30
29031;DHT22;16122;50.236;11.734;2024-01-30T09:08:58;16.40;56.20
29031;DHT22;16122;50.236;11.734;2024-01-30T09:11:24;16.40;56.00
29031;DHT22;16122;50.236;11.734;2024-01-30T09:13:50;16.40;56.00
29031;DHT22;16122;50.236;11.734;2024-01-30T09:16:15;16.40;55.90
29031;DHT22;16122;50.236;11.734;2024-01-30T09:18:42;16.40;55.80
29031;DHT22;16122;50.236;11.734;2024-01-30T09:21:08;16.40;55.70
29031;DHT22;16122;50.236;11.734;2024-01-30T09:23:35;16.40;55.40
29031;DHT22;16122;50.236;11.734;2024-01-30T09:26:01;16.40;55.50
29031;DHT22;16122;50.236;11.734;2024-01-30T09:28:26;16.40;55.70
29031;DHT22;16122;50.236;11.734;2024-01-30T09:30:52;16.40;55.50
29031;DHT22;16122;50.236;11.734;2024-01-30T09:33:18;16.40;55.50
29031;DHT22;16122;50.236;11.734;2024-01-30T09:35:44;16.40;55.20
29031;DHT22;16122;50.236;11.734;2024-01-30T09:38:10;16.40;55.20
29031;DHT22;16122;50.236;11.734;2024-01-30T09:40:36;16.40;55.20
29031;DHT22;16122;50.236;11.734;2024-01-30T09:43:02;16.40;55.00
29031;DHT22;16122;50.236;11.734;2024-01-30T09:45:28;16.40;54.90
29031;DHT22;16122;50.236;11.734;2024-01-30T09:47:54;16.40;55.10
29031;DHT22;16122;50.236;11.734;2024-01-30T09:50:20;16.40;54.90
29031;DHT22;16122;50.236;11.734;2024-01-30T09:52:47;16.40;54.70
29031;DHT22;16122;50.236;11.734;2024-01-30T09:55:14;16.40;55.00
29031;DHT22;16122;50.236;11.734;2024-01-30T09:57:41;16.40;55.40
29031;DHT22;16122;50.236;11.734;2024-01-30T10:00:07;16.40;55.50
29031;DHT22;16122;50.236;11.734;2024-01-30T10:02:40;16.40;55.60
29031;DHT22;16122;50.236;11.734;2024-01-30T10:05:08;16.40;56.20
29031;DHT22;16122;50.236;11.734;2024-01-30T10:07:35;16.40;56.30
29031;DHT22;16122;50.236;11.734;2024-01-30T10:10:01;16.40;56.60
29031;DHT22;16122;50.236;11.734;2024-01-30T10:12:27;16.40;56.70
29031;DHT22;16122;50.236;11.734;2024-01-30T10:14:55;16.40;56.60
29031;DHT22;16122;50.236;11.734;2024-01-30T10:17:21;16.40;56.40
29031;DHT22;16122;50.236;11.734;2024-01-30T10:19:50;16.40;56.40
29031;DHT22;16122;50.236;11.734;2024-01-30T10:22:17;16.40;56.70
29031;DHT22;16122;50.236;11.734;2024-01-30T10:24:43;16.40;56.60
29031;DHT22;16122;50.236;11.734;2024-01-30T10:27:11;16.40;56.70
29031;DHT22;16122;50.236;11.734;2024-01-30T10:29:37;16.30;56.70
29031;DHT22;16122;50.236;11.734;2024-01-30T10:32:04;16.30;56.70
29031;DHT22;16122;50.236;11.734;2024-01-30T10:34:31;16.30;56.40
29031;DHT22;16122;50.236;11.734;2024-01-30T10:37:07;16.30;56.20
29031;DHT22;16122;50.236;11.734;2024-01-30T10:39:39;16.30;56.10
29031;DHT22;16122;50.236;11.734;2024-01-30T10:42:07;16.30;56.10
29031;DHT22;16122;50.236;11.734;2024-01-30T10:45:05;16.30;56.10
29031;DHT22;16122;50.236;11.734;2024-01-30T10:47:36;16.30;56.40
29031;DHT22;16122;50.236;11.734;2024-01-30T10:50:02;16.30;56.70
29031;DHT22;16122;50.236;11.734;2024-01-30T10:52:29;16.30;57.00
29031;DHT22;16122;50.236;11.734;2024-01-30T10:54:56;16.30;57.50
29031;DHT22;16122;50.236;11.734;2024-01-30T10:57:23;16.30;57.60
29031;DHT22;16122;50.236;11.734;2024-01-30T10:59:52;16.20;57.50
29031;DHT22;16122;50.236;11.734;2024-01-30T11:02:19;16.20;57.70
29031;DHT22;16122;50.236;11.734;2024-01-30T11:04:45;16.20;56.90
29031;DHT22;16122;50.236;11.734;2024-01-30T11:07:19;16.20;67.10
29031;DHT22;16122;50.236;11.734;2024-01-30T11:10:09;16.40;72.20
29031;DHT22;16122;50.236;11.734;2024-01-30T11:12:40;16.30;80.90
29031;DHT22;16122;50.236;11.734;2024-01-30T11:15:14;16.40;72.50
29031;DHT22;16122;50.236;11.734;2024-01-30T11:22:50;16.40;72.10
29031;DHT22;16122;50.236;11.734;2024-01-30T11:25:17;16.40;72.00
29031;DHT22;16122;50.236;11.734;2024-01-30T11:27:45;16.30;72.10
29031;DHT22;16122;50.236;11.734;2024-01-30T11:33:05;16.50;74.70
29031;DHT22;16122;50.236;11.734;2024-01-30T11:35:36;16.40;76.10
29031;DHT22;16122;50.236;11.734;2024-01-30T11:38:03;16.40;79.70
29031;DHT22;16122;50.236;11.734;2024-01-30T11:40:30;16.40;79.20
29031;DHT22;16122;50.236;11.734;2024-01-30T11:42:58;16.50;81.30
29031;DHT22;16122;50.236;11.734;2024-01-30T11:45:24;16.50;83.80
29031;DHT22;16122;50.236;11.734;2024-01-30T11:47:50;16.40;80.30
29031;DHT22;16122;50.236;11.734;2024-01-30T11:50:16;16.30;80.00
29031;DHT22;16122;50.236;11.734;2024-01-30T11:52:42;16.30;81.20
29031;DHT22;16122;50.236;11.734;2024-01-30T11:55:09;16.30;80.40
29031;DHT22;16122;50.236;11.734;2024-01-30T11:57:36;16.30;79.60
29031;DHT22;16122;50.236;11.734;2024-01-30T12:00:06;16.40;76.10
29031;DHT22;16122;50.236;11.734;2024-01-30T12:02:39;16.40;77.20
29031;DHT22;16122;50.236;11.734;2024-01-30T12:05:06;16.40;78.10
29031;DHT22;16122;50.236;11.734;2024-01-30T12:07:36;16.40;78.00
29031;DHT22;16122;50.236;11.734;2024-01-30T12:10:02;16.30;77.90
29031;DHT22;16122;50.236;11.734;2024-01-30T12:12:28;16.30;79.30
29031;DHT22;16122;50.236;11.734;2024-01-30T12:14:55;16.30;79.10
29031;DHT22;16122;50.236;11.734;2024-01-30T12:17:29;16.30;79.40
29031;DHT22;16122;50.236;11.734;2024-01-30T12:24:55;16.20;56.70
29031;DHT22;16122;50.236;11.734;2024-01-30T12:27:20;16.30;58.10
29031;DHT22;16122;50.236;11.734;2024-01-30T12:29:46;16.30;58.40
29031;DHT22;16122;50.236;11.734;2024-01-30T12:32:16;16.30;59.10
29031;DHT22;16122;50.236;11.734;2024-01-30T12:34:42;16.30;59.60
29031;DHT22;16122;50.236;11.734;2024-01-30T12:37:08;16.30;61.10
29031;DHT22;16122;50.236;11.734;2024-01-30T12:39:35;16.40;61.50
29031;DHT22;16122;50.236;11.734;2024-01-30T12:42:01;16.40;61.30
29031;DHT22;16122;50.236;11.734;2024-01-30T12:44:27;16.30;60.30
29031;DHT22;16122;50.236;11.734;2024-01-30T12:46:54;16.30;59.80
29031;DHT22;16122;50.236;11.734;2024-01-30T12:49:20;16.30;59.60
29031;DHT22;16122;50.236;11.734;2024-01-30T12:51:46;16.40;56.30
29031;DHT22;16122;50.236;11.734;2024-01-30T12:54:13;16.40;55.70
29031;DHT22;16122;50.236;11.734;2024-01-30T12:56:38;16.40;55.70
29031;DHT22;16122;50.236;11.734;2024-01-30T12:59:04;16.40;55.80
29031;DHT22;16122;50.236;11.734;2024-01-30T13:01:30;16.40;55.80
29031;DHT22;16122;50.236;11.734;2024-01-30T13:03:56;16.40;56.00
29031;DHT22;16122;50.236;11.734;2024-01-30T13:06:23;16.40;55.80
29031;DHT22;16122;50.236;11.734;2024-01-30T13:08:48;16.40;55.60
29031;DHT22;16122;50.236;11.734;2024-01-30T13:11:14;16.40;55.60
29031;DHT22;16122;50.236;11.734;2024-01-30T13:13:40;16.40;55.50
29031;DHT22;16122;50.236;11.734;2024-01-30T13:16:07;16.40;55.50
29031;DHT22;16122;50.236;11.734;2024-01-30T13:18:34;16.40;55.30
29031;DHT22;16122;50.236;11.734;2024-01-30T13:21:01;16.40;55.30
29031;DHT22;16122;50.236;11.734;2024-01-30T13:23:28;16.40;55.20
29031;DHT22;16122;50.236;11.734;2024-01-30T13:25:54;16.40;55.20
29031;DHT22;16122;50.236;11.734;2024-01-30T13:28:23;16.40;55.30
29031;DHT22;16122;50.236;11.734;2024-01-30T13:30:49;16.40;55.30
29031;DHT22;16122;50.236;11.734;2024-01-30T13:33:15;16.40;55.30
29031;DHT22;16122;50.236;11.734;2024-01-30T13:35:41;16.40;55.40
29031;DHT22;16122;50.236;11.734;2024-01-30T13:38:08;16.40;55.50
29031;DHT22;16122;50.236;11.734;2024-01-30T13:40:34;16.40;55.60
29031;DHT22;16122;50.236;11.734;2024-01-30T13:42:59;16.30;55.70
29031;DHT22;16122;50.236;11.734;2024-01-30T13:45:25;16.30;55.60
29031;DHT22;16122;50.236;11.734;2024-01-30T13:47:51;16.30;55.80
29031;DHT22;16122;50.236;11.734;2024-01-30T13:50:17;16.30;56.10
29031;DHT22;16122;50.236;11.734;2024-01-30T13:52:43;16.30;56.40
29031;DHT22;16122;50.236;11.734;2024-01-30T13:55:09;16.30;56.60
29031;DHT22;16122;50.236;11.734;2024-01-30T13:57:36;16.30;57.40
29031;DHT22;16122;50.236;11.734;2024-01-30T14:00:05;16.30;57.10
29031;DHT22;16122;50.236;11.734;2024-01-30T14:02:38;16.30;57.70
29031;DHT22;16122;50.236;11.734;2024-01-30T14:05:05;16.30;57.80
29031;DHT22;16122;50.236;11.734;2024-01-30T14:07:31;16.30;58.00
29031;DHT22;16122;50.236;11.734;2024-01-30T14:09:58;16.30;58.00
29031;DHT22;16122;50.236;11.734;2024-01-30T14:12:24;16.20;57.70
29031;DHT22;16122;50.236;11.734;2024-01-30T14:14:50;16.30;57.80
29031;DHT22;16122;50.236;11.734;2024-01-30T14:17:16;16.20;57.80
29031;DHT22;16122;50.236;11.734;2024-01-30T14:19:42;16.20;57.60
29031;DHT22;16122;50.236;11.734;2024-01-30T14:22:08;16.20;57.50
29031;DHT22;16122;50.236;11.734;2024-01-30T14:24:34;16.20;57.50
29031;DHT22;16122;50.236;11.734;2024-01-30T14:27:00;16.30;57.60
29031;DHT22;16122;50.236;11.734;2024-01-30T14:29:26;16.20;57.50
29031;DHT22;16122;50.236;11.734;2024-01-30T14:31:52;16.20;57.50
29031;DHT22;16122;50.236;11.734;2024-01-30T14:34:17;16.20;57.50
29031;DHT22;16122;50.236;11.734;2024-01-30T14:36:44;16.20;57.50
29031;DHT22;16122;50.236;11.734;2024-01-30T14:39:10;16.20;57.50
29031;DHT22;16122;50.236;11.734;2024-01-30T14:41:36;16.20;57.50
29031;DHT22;16122;50.236;11.734;2024-01-30T14:44:02;16.20;57.50
29031;DHT22;16122;50.236;11.734;2024-01-30T14:46:28;16.20;57.20
29031;DHT22;16122;50.236;11.734;2024-01-30T14:48:55;16.10;56.40
29031;DHT22;16122;50.236;11.734;2024-01-30T14:51:20;16.20;56.50
29031;DHT22;16122;50.236;11.734;2024-01-30T14:53:46;16.20;56.50
29031;DHT22;16122;50.236;11.734;2024-01-30T14:56:12;16.10;56.40
29031;DHT22;16122;50.236;11.734;2024-01-30T14:58:38;16.20;56.60
29031;DHT22;16122;50.236;11.734;2024-01-30T15:01:04;16.10;56.60
29031;DHT22;16122;50.236;11.734;2024-01-30T15:03:30;16.20;56.50
29031;DHT22;16122;50.236;11.734;2024-01-30T15:05:56;16.10;56.40
29031;DHT22;16122;50.236;11.734;2024-01-30T15:08:22;16.10;56.30
29031;DHT22;16122;50.236;11.734;2024-01-30T15:10:48;16.10;56.30
29031;DHT22;16122;50.236;11.734;2024-01-30T15:13:15;16.10;56.40
29031;DHT22;16122;50.236;11.734;2024-01-30T15:15:41;16.20;56.40
29031;DHT22;16122;50.236;11.734;2024-01-30T15:18:08;16.10;56.30
29031;DHT22;16122;50.236;11.734;2024-01-30T15:20:36;16.10;56.30
29031;DHT22;16122;50.236;11.734;2024-01-30T15:23:02;16.20;56.30
29031;DHT22;16122;50.236;11.734;2024-01-30T15:25:28;16.20;56.50